Terminal Aerodrome Forecast
Issued by NWS Paducah, KY

Home | Current Version | Previous Version | Text Only | Print | Product List | Glossary On
Versions: 1 2 3 4 5 6 7 8 9 10 11 12 13 14 15
000
FTUS43 KPAH 171700
TAFEVV
TAF
KEVV 171720Z 1718/1818 21011G21KT P6SM FEW200
     FM172045 19008KT P6SM SCT045 BKN200
     FM172330 18004KT P6SM BKN050
     FM180600 21004KT P6SM OVC050
     FM181300 VRB02KT P6SM SCT140=

USA.gov is the U.S. government's official web portal to all federal, state and local government web resources and services.